Time;durP1;ratioP1;P1;durP2;ratioP2;P2;SDS_P1;SDS_P2;PMS_P1;PMS_P2;Temp;Humidity;BMP_temperature;BMP_pressure;BME280_temperature;BME280_humidity;BME280_pressure;Samples;Min_cycle;Max_cycle;Signal;HPM_P1;HPM_P2
2023/03/26 00:01:20;;;;;;;5.75;1.70;;;12.50;97.00;;;;;;10068462;28;20051;-63
2023/03/26 00:06:14;;;;;;;2.45;0.98;;;12.50;97.20;;;;;;10067212;28;20088;-63
2023/03/26 00:11:08;;;;;;;3.97;1.35;;;12.70;97.10;;;;;;10063363;28;20926;-62
2023/03/26 00:16:00;;;;;;;4.22;1.90;;;12.60;97.20;;;;;;10061783;28;20091;-63
2023/03/26 00:20:51;;;;;;;2.70;1.02;;;12.70;97.30;;;;;;10061177;28;20307;-64
2023/03/26 00:25:42;;;;;;;3.22;1.42;;;12.70;97.30;;;;;;10063509;28;20300;-63
2023/03/26 00:30:34;;;;;;;4.63;1.58;;;12.70;97.40;;;;;;10060805;28;20025;-64
2023/03/26 00:35:25;;;;;;;2.72;0.85;;;12.60;97.60;;;;;;10060242;28;20028;-64
2023/03/26 00:40:15;;;;;;;3.60;1.10;;;12.50;97.70;;;;;;10060379;28;20377;-64
2023/03/26 00:45:06;;;;;;;2.97;1.40;;;12.30;97.90;;;;;;10068026;28;20029;-65
2023/03/26 00:49:57;;;;;;;1.85;1.02;;;12.30;98.00;;;;;;10060470;28;20113;-64
2023/03/26 00:54:51;;;;;;;4.65;1.52;;;12.20;98.10;;;;;;10059603;28;20112;-63
2023/03/26 00:59:45;;;;;;;1.80;0.95;;;12.20;98.30;;;;;;10062447;28;20110;-64
2023/03/26 01:04:36;;;;;;;2.65;0.70;;;12.10;98.40;;;;;;10059268;28;20053;-63
2023/03/26 01:09:36;;;;;;;4.07;1.15;;;12.00;98.60;;;;;;10059406;28;20022;-63
2023/03/26 01:14:30;;;;;;;4.00;1.27;;;12.00;98.80;;;;;;10060482;28;20021;-63
2023/03/26 01:19:55;;;;;;;3.05;0.95;;;12.10;98.80;;;;;;10059326;28;20513;-64
2023/03/26 01:24:52;;;;;;;3.55;0.90;;;12.10;98.90;;;;;;10060416;28;20022;-62
2023/03/26 01:29:53;;;;;;;5.45;1.83;;;12.00;98.90;;;;;;10066185;28;20055;-62
2023/03/26 01:35:11;;;;;;;4.07;1.63;;;11.90;99.40;;;;;;10053037;28;20036;-63
2023/03/26 01:40:12;;;;;;;2.15;1.00;;;12.00;99.30;;;;;;10059553;28;20045;-63
2023/03/26 01:45:15;;;;;;;3.17;0.90;;;12.00;99.30;;;;;;10057926;28;20021;-63
2023/03/26 01:50:07;;;;;;;1.23;0.73;;;12.10;99.20;;;;;;10045461;28;20036;-63
2023/03/26 01:54:58;;;;;;;3.10;1.50;;;12.00;99.40;;;;;;10056163;28;20041;-63
2023/03/26 01:59:57;;;;;;;5.03;1.13;;;12.00;99.50;;;;;;10057697;28;20105;-62
2023/03/26 02:05:03;;;;;;;6.13;1.45;;;12.00;99.50;;;;;;10056741;28;20029;-64
2023/03/26 02:10:22;;;;;;;1.35;1.00;;;12.10;99.60;;;;;;10061123;28;20116;-64
2023/03/26 02:15:13;;;;;;;3.05;1.05;;;12.00;99.70;;;;;;10050551;28;20045;-63
2023/03/26 02:20:07;;;;;;;2.00;0.85;;;12.00;99.90;;;;;;10056786;28;20026;-64
2023/03/26 02:24:58;;;;;;;2.55;1.20;;;12.00;99.90;;;;;;10058663;28;20051;-64
2023/03/26 02:29:49;;;;;;;2.17;0.93;;;11.90;99.90;;;;;;10056399;28;20018;-62
2023/03/26 02:34:40;;;;;;;3.13;1.25;;;11.80;99.90;;;;;;10055488;28;20389;-63
2023/03/26 02:39:31;;;;;;;6.38;0.93;;;11.80;99.90;;;;;;10061964;28;20083;-63
2023/03/26 02:44:22;;;;;;;5.25;1.27;;;11.90;99.90;;;;;;10054385;28;20036;-63
2023/03/26 02:49:12;;;;;;;1.95;1.25;;;11.80;99.90;;;;;;10058483;28;20048;-64
2023/03/26 02:54:03;;;;;;;4.30;1.27;;;11.80;99.90;;;;;;10063650;28;20053;-64
2023/03/26 02:58:54;;;;;;;3.97;1.77;;;11.90;99.90;;;;;;10055303;28;20441;-63
2023/03/26 03:03:48;;;;;;;3.03;1.05;;;11.80;99.90;;;;;;10056855;28;20108;-63
2023/03/26 03:08:40;;;;;;;3.58;1.00;;;11.80;99.90;;;;;;10047721;28;20026;-63
2023/03/26 03:13:31;;;;;;;2.40;1.33;;;11.80;99.90;;;;;;10055604;28;20093;-63
2023/03/26 03:18:21;;;;;;;4.47;1.15;;;11.80;99.90;;;;;;10056734;28;20041;-62
2023/03/26 03:23:13;;;;;;;3.92;1.60;;;11.90;99.90;;;;;;10056538;28;20383;-63
2023/03/26 03:28:04;;;;;;;2.05;1.10;;;11.80;99.90;;;;;;10056323;28;20060;-63
2023/03/26 03:32:57;;;;;;;2.03;1.08;;;11.70;99.90;;;;;;10065271;28;20458;-63
2023/03/26 03:37:47;;;;;;;3.92;2.17;;;11.70;99.90;;;;;;10054562;28;20042;-62
2023/03/26 03:42:38;;;;;;;4.07;1.70;;;11.70;99.90;;;;;;10055291;28;20108;-63
2023/03/26 03:47:29;;;;;;;4.05;1.05;;;11.60;99.90;;;;;;10061825;28;20040;-63
2023/03/26 03:52:19;;;;;;;4.68;1.08;;;11.70;99.90;;;;;;10062867;28;20079;-63
2023/03/26 03:57:10;;;;;;;1.38;0.95;;;11.70;99.90;;;;;;10061716;28;20045;-62
2023/03/26 04:02:01;;;;;;;6.90;1.10;;;11.70;99.90;;;;;;10067561;28;20449;-63
2023/03/26 04:06:51;;;;;;;1.92;1.40;;;11.70;99.90;;;;;;10061203;28;20031;-63
2023/03/26 04:11:42;;;;;;;4.43;1.08;;;11.50;99.90;;;;;;10061338;28;20030;-63
2023/03/26 04:16:32;;;;;;;2.45;0.98;;;11.60;99.90;;;;;;10066627;28;20043;-63
2023/03/26 04:21:25;;;;;;;3.40;0.90;;;11.60;99.90;;;;;;10061150;28;20435;-62
2023/03/26 04:26:18;;;;;;;4.22;1.23;;;11.50;99.90;;;;;;10062904;28;20136;-63
2023/03/26 04:31:14;;;;;;;2.97;1.08;;;11.50;99.90;;;;;;10061479;28;20026;-63
2023/03/26 04:36:05;;;;;;;2.80;1.20;;;11.60;99.90;;;;;;10059913;28;20442;-63
2023/03/26 04:40:58;;;;;;;2.63;0.93;;;11.60;99.90;;;;;;10060721;28;20013;-63
2023/03/26 04:45:49;;;;;;;3.47;1.20;;;11.60;99.90;;;;;;10062371;28;20030;-62
2023/03/26 04:50:44;;;;;;;3.55;1.27;;;11.60;99.90;;;;;;10060746;28;20022;-63
2023/03/26 04:55:41;;;;;;;1.90;0.98;;;11.50;99.90;;;;;;10060228;28;20034;-62
2023/03/26 05:00:31;;;;;;;3.53;0.90;;;11.50;99.90;;;;;;10066974;28;20025;-63
2023/03/26 05:05:23;;;;;;;3.42;0.70;;;11.50;99.90;;;;;;10059419;28;20025;-62
2023/03/26 05:10:15;;;;;;;3.10;0.90;;;11.50;99.90;;;;;;10060082;28;20017;-63
2023/03/26 05:15:07;;;;;;;1.85;0.90;;;11.40;99.90;;;;;;10059769;28;20128;-62
2023/03/26 05:19:58;;;;;;;6.25;0.80;;;11.50;99.90;;;;;;10059172;28;20037;-63
2023/03/26 05:24:49;;;;;;;5.28;0.95;;;11.60;99.90;;;;;;10066300;28;20017;-62
2023/03/26 05:29:39;;;;;;;3.90;1.23;;;11.50;99.90;;;;;;10058710;28;20235;-63
2023/03/26 05:34:30;;;;;;;6.07;1.33;;;11.50;99.90;;;;;;10058011;28;20049;-62
2023/03/26 05:39:25;;;;;;;4.05;0.93;;;11.50;99.90;;;;;;10064231;28;20128;-62
2023/03/26 05:44:15;;;;;;;2.80;1.05;;;11.50;99.90;;;;;;10058299;28;20026;-63
2023/03/26 05:49:06;;;;;;;3.30;1.00;;;11.40;99.90;;;;;;10058079;28;20017;-63
2023/03/26 05:53:56;;;;;;;2.88;1.10;;;11.30;99.90;;;;;;10059315;28;20018;-63
2023/03/26 05:58:47;;;;;;;3.45;1.45;;;11.20;99.90;;;;;;10057794;28;20045;-64
2023/03/26 06:03:38;;;;;;;5.45;0.90;;;11.20;99.90;;;;;;10058030;28;20025;-63
2023/03/26 06:08:30;;;;;;;3.25;1.23;;;11.20;99.90;;;;;;10061537;28;20029;-63
2023/03/26 06:13:20;;;;;;;3.33;1.40;;;11.30;99.90;;;;;;10057216;28;20030;-62
2023/03/26 06:18:11;;;;;;;2.83;1.35;;;11.30;99.90;;;;;;10056755;28;20116;-62
2023/03/26 06:23:02;;;;;;;7.50;2.10;;;11.10;99.90;;;;;;10056697;28;20025;-63
2023/03/26 06:27:52;;;;;;;2.88;1.50;;;11.30;99.90;;;;;;10059273;28;20045;-63
2023/03/26 06:32:43;;;;;;;5.45;1.20;;;11.20;99.90;;;;;;10049504;28;20105;-63
2023/03/26 06:37:34;;;;;;;2.17;1.55;;;11.30;99.90;;;;;;10056270;28;20037;-63
2023/03/26 06:42:24;;;;;;;4.30;1.38;;;11.20;99.90;;;;;;10054759;28;20048;-64
2023/03/26 06:47:15;;;;;;;3.83;1.85;;;11.20;99.90;;;;;;10055929;28;20026;-63
2023/03/26 06:52:06;;;;;;;6.50;1.40;;;11.20;99.90;;;;;;10055691;28;20033;-64
2023/03/26 06:56:57;;;;;;;5.45;1.88;;;11.20;99.90;;;;;;10055551;28;20033;-64
2023/03/26 07:01:48;;;;;;;5.40;1.52;;;11.20;99.90;;;;;;10056381;28;20348;-64
2023/03/26 07:06:38;;;;;;;3.53;1.48;;;11.30;99.90;;;;;;10055223;28;20044;-64
2023/03/26 07:11:29;;;;;;;4.22;1.58;;;11.30;99.90;;;;;;10055754;28;20052;-63
2023/03/26 07:16:20;;;;;;;1.75;1.02;;;11.20;99.90;;;;;;10056870;28;20034;-63
2023/03/26 07:21:11;;;;;;;2.42;1.10;;;11.20;99.90;;;;;;10069564;28;20395;-63
2023/03/26 07:26:33;;;;;;;5.45;1.30;;;11.20;99.90;;;;;;10065714;28;20455;-62
2023/03/26 07:31:28;;;;;;;3.55;1.17;;;11.10;99.90;;;;;;10067169;28;20082;-63
2023/03/26 07:36:24;;;;;;;5.47;1.65;;;11.00;99.90;;;;;;10062383;28;20660;-64
2023/03/26 07:41:21;;;;;;;11.23;2.67;;;10.80;99.90;;;;;;10063267;28;20041;-62
2023/03/26 07:46:13;;;;;;;2.70;1.50;;;10.70;99.90;;;;;;10070359;28;20667;-63
2023/03/26 07:51:04;;;;;;;5.90;1.70;;;10.80;99.90;;;;;;10062242;28;20060;-63
2023/03/26 07:56:14;;;;;;;3.78;1.42;;;11.00;99.90;;;;;;10062602;28;20063;-64
2023/03/26 08:01:20;;;;;;;2.10;1.63;;;11.20;99.90;;;;;;10065315;28;20103;-62
2023/03/26 08:06:32;;;;;;;4.45;1.30;;;11.40;99.90;;;;;;10061500;28;20041;-63
2023/03/26 08:11:27;;;;;;;3.17;1.40;;;11.30;99.90;;;;;;10061671;28;20488;-66
2023/03/26 08:16:28;;;;;;;3.27;1.10;;;11.50;99.90;;;;;;10065447;28;20053;-64
2023/03/26 08:21:25;;;;;;;1.98;1.00;;;11.70;99.90;;;;;;10061647;28;20036;-64
2023/03/26 08:26:32;;;;;;;4.75;1.48;;;11.80;99.90;;;;;;10062085;28;20520;-62
2023/03/26 08:31:34;;;;;;;2.65;0.90;;;12.10;99.90;;;;;;10053014;28;20025;-63
2023/03/26 08:36:25;;;;;;;1.20;0.77;;;12.50;99.90;;;;;;10059419;28;20049;-64
2023/03/26 08:41:39;;;;;;;2.47;1.10;;;12.60;99.90;;;;;;10061081;28;20029;-63
2023/03/26 08:46:29;;;;;;;1.50;0.75;;;12.40;99.90;;;;;;10060242;28;20466;-63
2023/03/26 08:51:29;;;;;;;2.05;0.90;;;12.40;99.90;;;;;;10060537;28;20160;-62
2023/03/26 08:56:37;;;;;;;3.05;1.92;;;12.40;99.90;;;;;;10060044;28;20388;-64
2023/03/26 09:01:38;;;;;;;2.53;1.05;;;12.40;99.90;;;;;;10060812;28;20298;-62
2023/03/26 09:06:56;;;;;;;3.75;0.80;;;13.00;99.90;;;;;;10056571;28;20017;-63
2023/03/26 09:12:11;;;;;;;1.88;0.65;;;13.50;99.90;;;;;;10063407;28;20029;-64
2023/03/26 09:17:21;;;;;;;2.72;1.00;;;13.80;99.90;;;;;;10059540;28;20112;-63
2023/03/26 09:22:30;;;;;;;1.70;0.65;;;13.60;99.90;;;;;;10059747;28;20549;-64
2023/03/26 09:27:33;;;;;;;1.52;0.70;;;13.30;99.90;;;;;;10062682;28;20076;-64
2023/03/26 09:32:58;;;;;;;3.30;0.98;;;13.20;99.90;;;;;;10060390;28;20484;-63
2023/03/26 09:37:58;;;;;;;2.20;0.70;;;13.30;99.90;;;;;;10059228;28;20617;-63
2023/03/26 09:43:27;;;;;;;1.30;0.63;;;13.40;99.90;;;;;;10058116;28;20053;-62
2023/03/26 09:48:18;;;;;;;1.80;0.50;;;13.40;99.90;;;;;;10056898;28;20033;-63
2023/03/26 09:53:39;;;;;;;1.95;0.70;;;13.40;99.90;;;;;;10067091;28;20415;-63
2023/03/26 09:58:46;;;;;;;2.45;0.50;;;13.40;99.90;;;;;;10047224;28;20116;-63
2023/03/26 10:03:55;;;;;;;1.08;0.80;;;13.70;99.80;;;;;;10048870;28;20094;-63
2023/03/26 10:09:02;;;;;;;0.60;0.43;;;14.00;99.90;;;;;;10051750;28;20466;-64
2023/03/26 10:14:16;;;;;;;2.22;0.63;;;14.20;99.90;;;;;;10053430;28;20108;-64
2023/03/26 10:19:16;;;;;;;1.08;0.70;;;14.20;99.90;;;;;;10057871;28;20060;-64
2023/03/26 10:24:23;;;;;;;1.15;0.60;;;14.00;99.90;;;;;;10060309;28;20018;-64
2023/03/26 10:29:19;;;;;;;2.33;1.23;;;14.30;99.90;;;;;;10055593;28;20500;-64
2023/03/26 10:34:25;;;;;;;3.40;1.45;;;14.30;99.80;;;;;;10059437;28;20472;-63
2023/03/26 10:39:35;;;;;;;2.38;0.60;;;14.20;99.30;;;;;;10063092;28;20063;-65
2023/03/26 10:44:47;;;;;;;1.15;0.80;;;14.30;98.80;;;;;;10056220;28;20018;-64
2023/03/26 10:49:53;;;;;;;1.27;0.88;;;14.40;98.10;;;;;;10067793;28;20427;-63
2023/03/26 10:55:39;;;;;;;2.13;0.88;;;14.40;98.10;;;;;;10055575;28;20051;-63
2023/03/26 11:00:40;;;;;;;3.60;1.48;;;14.40;97.20;;;;;;10040363;28;20072;-64
2023/03/26 11:05:59;;;;;;;4.30;1.10;;;14.40;97.60;;;;;;10056493;28;20029;-63
2023/03/26 11:11:14;;;;;;;1.55;0.88;;;14.60;97.00;;;;;;10056082;28;20117;-64
2023/03/26 11:16:18;;;;;;;3.17;1.10;;;14.90;97.00;;;;;;10060031;28;20555;-64
2023/03/26 11:21:28;;;;;;;2.55;0.95;;;14.90;96.90;;;;;;10055680;28;20030;-62
2023/03/26 11:26:30;;;;;;;2.58;0.65;;;15.00;96.30;;;;;;10058019;28;20103;-63
2023/03/26 11:31:50;;;;;;;5.35;1.50;;;15.30;96.30;;;;;;10055911;28;20021;-63
2023/03/26 11:36:53;;;;;;;4.88;0.65;;;15.10;95.80;;;;;;10054858;28;20041;-63
2023/03/26 11:41:44;;;;;;;0.60;0.55;;;15.20;95.60;;;;;;10055024;28;20036;-64
2023/03/26 11:46:41;;;;;;;2.33;0.45;;;15.40;95.40;;;;;;10055204;28;20068;-64
2023/03/26 11:51:37;;;;;;;3.28;0.70;;;15.50;94.00;;;;;;10055611;28;20025;-64
2023/03/26 11:56:36;;;;;;;4.80;0.80;;;15.60;93.60;;;;;;10054561;28;20045;-62
2023/03/26 12:01:40;;;;;;;1.52;0.80;;;15.60;92.90;;;;;;10057540;28;20017;-64
2023/03/26 12:06:31;;;;;;;1.55;0.70;;;15.20;92.40;;;;;;10054155;28;20022;-66
2023/03/26 12:11:27;;;;;;;1.52;0.60;;;15.00;92.20;;;;;;10062325;28;20056;-66
2023/03/26 12:16:20;;;;;;;1.42;0.73;;;14.70;92.00;;;;;;10054558;28;20319;-63
2023/03/26 12:21:17;;;;;;;4.70;1.88;;;14.50;92.00;;;;;;10062284;28;20049;-63
2023/03/26 12:26:16;;;;;;;2.45;1.15;;;14.30;91.90;;;;;;10066693;28;20214;-63
2023/03/26 12:31:16;;;;;;;2.53;0.93;;;14.20;91.90;;;;;;10060859;28;20021;-64
2023/03/26 12:36:20;;;;;;;3.22;0.82;;;14.00;92.60;;;;;;10059235;28;20048;-64
2023/03/26 12:41:12;;;;;;;2.40;0.55;;;14.40;93.10;;;;;;10064921;28;20060;-63
2023/03/26 12:46:18;;;;;;;0.88;0.60;;;14.60;93.20;;;;;;10058898;28;20472;-64
2023/03/26 12:51:20;;;;;;;;;;;15.00;93.40;;;;;;10061606;28;20029;-64
2023/03/26 12:56:37;;;;;;;2.08;0.73;;;15.10;93.70;;;;;;10061817;28;19917;-64
2023/03/26 13:01:37;;;;;;;3.50;0.93;;;14.80;93.90;;;;;;10060580;28;20052;-63
2023/03/26 13:06:56;;;;;;;2.22;0.70;;;14.50;94.10;;;;;;10059783;28;20034;-64
2023/03/26 13:12:20;;;;;;;2.00;0.65;;;14.10;94.50;;;;;;10064659;28;20499;-63
2023/03/26 13:17:19;;;;;;;2.35;1.27;;;13.60;94.60;;;;;;10051235;28;20107;-65
2023/03/26 13:22:57;;;;;;;1.17;0.63;;;13.00;95.20;;;;;;10062812;28;20033;-62
2023/03/26 13:28:15;;;;;;;3.47;1.65;;;12.20;96.90;;;;;;10007149;28;20056;-63
2023/03/26 13:33:21;;;;;;;0.85;0.50;;;11.50;97.90;;;;;;10058121;28;20116;-63
2023/03/26 13:38:17;;;;;;;;;;;11.10;98.60;;;;;;10061360;28;20041;-63
2023/03/26 13:43:16;;;;;;;1.75;0.40;;;10.80;99.70;;;;;;10058449;28;20268;-64
2023/03/26 13:48:28;;;;;;;1.42;0.57;;;10.90;99.90;;;;;;10058530;28;20488;-64
2023/03/26 13:53:31;;;;;;;1.20;0.57;;;10.80;99.90;;;;;;10060464;28;20061;-62
2023/03/26 13:58:36;;;;;;;1.08;0.40;;;10.70;99.90;;;;;;10058399;28;20052;-63
2023/03/26 14:03:38;;;;;;;0.70;0.50;;;10.70;99.90;;;;;;10057634;28;20033;-63
2023/03/26 14:09:09;;;;;;;1.20;0.82;;;10.80;99.90;;;;;;10058294;28;20070;-62
2023/03/26 14:14:15;;;;;;;0.52;0.30;;;10.60;99.90;;;;;;10051806;28;20014;-69
2023/03/26 14:19:32;;;;;;;0.30;0.10;;;10.40;99.90;;;;;;10047878;28;20060;-65
2023/03/26 14:24:46;;;;;;;0.15;0.15;;;10.30;99.90;;;;;;10048914;28;20096;-66
2023/03/26 14:30:11;;;;;;;0.38;0.20;;;10.60;99.90;;;;;;10025061;28;20135;-67
2023/03/26 14:35:10;;;;;;;0.57;0.25;;;10.80;99.90;;;;;;10050893;28;20042;-63
2023/03/26 14:40:27;;;;;;;0.73;0.73;;;11.10;99.90;;;;;;10040399;28;20053;-64
2023/03/26 14:45:55;;;;;;;2.15;0.60;;;11.20;99.90;;;;;;10036815;28;20064;-61
2023/03/26 14:51:18;;;;;;;0.22;0.22;;;11.10;99.90;;;;;;10048041;28;20029;-63
2023/03/26 14:56:23;;;;;;;0.60;0.28;;;11.10;99.90;;;;;;10047726;28;20053;-62
2023/03/26 15:01:49;;;;;;;1.98;0.45;;;11.10;99.90;;;;;;10056063;28;20033;-62
2023/03/26 15:06:59;;;;;;;0.65;0.40;;;11.10;99.90;;;;;;10046245;28;20045;-62
2023/03/26 15:12:00;;;;;;;0.20;0.20;;;11.00;99.90;;;;;;10059288;28;20484;-63
2023/03/26 15:17:15;;;;;;;0.60;0.45;;;11.10;99.90;;;;;;10056117;28;20133;-63
2023/03/26 15:22:36;;;;;;;1.17;0.52;;;11.00;99.90;;;;;;10054080;28;20443;-64
2023/03/26 15:27:47;;;;;;;0.52;0.30;;;11.00;99.90;;;;;;10057744;28;20051;-61
2023/03/26 15:33:21;;;;;;;0.50;0.22;;;11.00;99.90;;;;;;10044889;28;20065;-63
2023/03/26 15:38:47;;;;;;;0.77;0.40;;;10.90;99.90;;;;;;10050702;28;20033;-62
2023/03/26 15:44:21;;;;;;;0.47;0.30;;;11.00;99.90;;;;;;10060362;28;20037;-62
2023/03/26 15:49:25;;;;;;;0.30;0.22;;;11.10;99.90;;;;;;10062939;28;20116;-64
2023/03/26 15:54:31;;;;;;;1.00;0.38;;;11.10;99.90;;;;;;10054263;28;20491;-63
2023/03/26 15:59:43;;;;;;;1.40;0.43;;;11.20;99.90;;;;;;10062598;28;20068;-65
2023/03/26 16:04:51;;;;;;;1.13;0.43;;;11.40;99.90;;;;;;10062348;28;20393;-63
2023/03/26 16:10:20;;;;;;;0.77;0.40;;;11.70;99.90;;;;;;10057272;28;20033;-63
2023/03/26 16:15:17;;;;;;;4.38;0.80;;;12.30;99.90;;;;;;10062025;28;20052;-64
2023/03/26 16:21:12;;;;;;;0.50;0.50;;;13.30;99.90;;;;;;10060221;28;20029;-64
2023/03/26 16:26:17;;;;;;;2.38;0.88;;;13.00;99.90;;;;;;9978674;28;20059;-62
2023/03/26 16:31:10;;;;;;;1.60;0.52;;;13.90;99.90;;;;;;10052149;28;20029;-63
2023/03/26 16:36:17;;;;;;;1.00;0.40;;;13.50;99.90;;;;;;10060783;28;20080;-63
2023/03/26 16:41:25;;;;;;;0.77;0.43;;;14.20;99.40;;;;;;10058022;28;20025;-62
2023/03/26 16:46:16;;;;;;;1.75;0.50;;;14.70;98.40;;;;;;10060618;28;20040;-63
2023/03/26 16:51:37;;;;;;;0.43;0.43;;;13.90;99.10;;;;;;10063054;28;20029;-63
2023/03/26 16:56:47;;;;;;;1.20;0.70;;;13.60;99.20;;;;;;10056411;28;20559;-65
2023/03/26 17:01:55;;;;;;;0.47;0.28;;;12.90;99.50;;;;;;10058369;28;20123;-63
2023/03/26 17:07:00;;;;;;;2.15;0.77;;;12.60;99.70;;;;;;10065382;28;20535;-64
2023/03/26 17:12:22;;;;;;;0.60;0.40;;;12.60;99.40;;;;;;10059823;28;20079;-63
2023/03/26 17:17:36;;;;;;;0.90;0.40;;;12.30;99.60;;;;;;10062268;28;20091;-62
2023/03/26 17:22:42;;;;;;;0.88;0.30;;;12.00;99.80;;;;;;10060091;28;20565;-63
2023/03/26 17:28:19;;;;;;;1.15;0.47;;;11.80;99.80;;;;;;10060462;28;20049;-62
2023/03/26 17:33:25;;;;;;;0.50;0.50;;;11.50;99.90;;;;;;10054049;28;20407;-63
2023/03/26 17:38:16;;;;;;;1.15;0.40;;;11.40;99.90;;;;;;10065368;28;20516;-61
2023/03/26 17:43:10;;;;;;;0.90;0.38;;;11.30;99.90;;;;;;10064482;28;20104;-66
2023/03/26 17:48:09;;;;;;;0.73;0.32;;;11.30;99.90;;;;;;10056045;28;20079;-67
2023/03/26 17:53:03;;;;;;;0.80;0.80;;;10.70;99.90;;;;;;10049649;28;20040;-62
2023/03/26 17:57:58;;;;;;;0.55;0.30;;;10.10;99.90;;;;;;10038059;28;20042;-67
2023/03/26 18:02:56;;;;;;;1.45;0.63;;;10.00;99.90;;;;;;10049968;28;20034;-65
2023/03/26 18:08:16;;;;;;;0.65;0.45;;;10.00;99.90;;;;;;10053253;28;20055;-66
2023/03/26 18:13:38;;;;;;;1.20;0.70;;;10.10;99.90;;;;;;10050198;28;20021;-66
2023/03/26 18:18:32;;;;;;;1.27;1.17;;;10.30;99.90;;;;;;10043776;28;20630;-61
2023/03/26 18:23:38;;;;;;;0.82;0.70;;;10.30;99.90;;;;;;10036792;28;20022;-61
2023/03/26 18:28:33;;;;;;;2.17;0.57;;;10.30;99.90;;;;;;10028344;28;20164;-66
2023/03/26 18:33:24;;;;;;;2.28;1.35;;;10.30;99.90;;;;;;10042713;28;20022;-68
2023/03/26 18:38:19;;;;;;;1.80;0.82;;;10.30;99.90;;;;;;10050327;28;20128;-68
2023/03/26 18:43:19;;;;;;;2.28;1.27;;;10.50;99.90;;;;;;10039739;28;20030;-64
2023/03/26 18:48:18;;;;;;;1.60;1.17;;;10.50;99.90;;;;;;10052705;28;20025;-64
2023/03/26 18:53:20;;;;;;;1.67;1.00;;;10.60;99.90;;;;;;10045881;28;20044;-69
2023/03/26 18:58:22;;;;;;;2.00;1.30;;;10.50;99.90;;;;;;10045683;28;20069;-66
2023/03/26 19:03:17;;;;;;;1.85;1.10;;;10.60;99.90;;;;;;10038700;28;20354;-66
2023/03/26 19:08:09;;;;;;;2.90;1.20;;;10.60;99.90;;;;;;10038339;28;20025;-67
2023/03/26 19:13:01;;;;;;;2.95;1.48;;;10.60;99.90;;;;;;10052699;28;20252;-66
2023/03/26 19:17:58;;;;;;;4.65;2.58;;;10.70;99.90;;;;;;10050808;28;20096;-66
2023/03/26 19:22:49;;;;;;;2.90;1.33;;;10.70;99.90;;;;;;10054876;28;20038;-66
2023/03/26 19:27:40;;;;;;;2.08;1.00;;;10.60;99.90;;;;;;10052626;28;20037;-64
2023/03/26 19:32:31;;;;;;;2.25;1.10;;;10.60;99.90;;;;;;10063240;28;20026;-64
2023/03/26 19:37:25;;;;;;;2.72;1.15;;;10.60;99.90;;;;;;10060906;28;20029;-65
2023/03/26 19:42:30;;;;;;;1.30;0.90;;;10.50;99.90;;;;;;10044433;28;20554;-64
2023/03/26 19:47:25;;;;;;;4.00;1.40;;;10.50;99.90;;;;;;10043963;28;20268;-67
2023/03/26 19:52:31;;;;;;;2.92;1.08;;;10.50;99.90;;;;;;10057256;28;20516;-66
2023/03/26 19:57:22;;;;;;;1.75;1.00;;;10.40;99.90;;;;;;10050714;28;20071;-63
2023/03/26 20:02:14;;;;;;;1.25;1.10;;;10.20;99.90;;;;;;10055093;28;20018;-66
2023/03/26 20:07:13;;;;;;;3.00;0.82;;;10.10;99.90;;;;;;10075933;28;20037;-64
2023/03/26 20:12:04;;;;;;;2.30;0.90;;;10.10;99.90;;;;;;10070420;28;20022;-66
2023/03/26 20:16:55;;;;;;;1.63;1.38;;;10.00;99.90;;;;;;10092311;28;20167;-63
2023/03/26 20:21:46;;;;;;;0.65;0.55;;;10.10;99.90;;;;;;10068010;28;20021;-66
2023/03/26 20:26:36;;;;;;;0.90;0.80;;;10.10;99.90;;;;;;10056199;28;20053;-63
2023/03/26 20:31:28;;;;;;;1.58;1.20;;;10.20;99.90;;;;;;10058946;28;20029;-65
2023/03/26 20:36:19;;;;;;;0.75;0.55;;;10.30;99.90;;;;;;10063139;28;20076;-66
2023/03/26 20:41:28;;;;;;;1.02;0.47;;;10.20;99.90;;;;;;10062201;28;20392;-71
2023/03/26 20:46:22;;;;;;;1.77;1.27;;;10.20;99.90;;;;;;10059451;28;20033;-66
2023/03/26 20:51:14;;;;;;;0.73;0.50;;;10.20;99.90;;;;;;10061592;28;20044;-63
2023/03/26 20:56:06;;;;;;;1.40;1.02;;;10.20;99.90;;;;;;10064733;28;20064;-66
2023/03/26 21:00:59;;;;;;;3.15;0.80;;;10.30;99.90;;;;;;10070562;28;20026;-65
2023/03/26 21:05:51;;;;;;;1.40;0.98;;;10.40;99.90;;;;;;10067901;28;20018;-64
2023/03/26 21:10:43;;;;;;;0.82;0.60;;;10.30;99.90;;;;;;10065347;28;20069;-64
2023/03/26 21:15:34;;;;;;;0.75;0.60;;;10.40;99.90;;;;;;10060003;28;20068;-65
2023/03/26 21:20:28;;;;;;;1.10;0.70;;;10.30;99.90;;;;;;10062715;28;20120;-65
2023/03/26 21:25:40;;;;;;;1.17;0.50;;;10.20;99.90;;;;;;10061432;28;20612;-67
2023/03/26 21:30:33;;;;;;;1.40;0.70;;;10.20;99.90;;;;;;10062403;28;20231;-68
2023/03/26 21:35:24;;;;;;;1.27;0.65;;;10.20;99.90;;;;;;10062169;28;20128;-67
2023/03/26 21:40:16;;;;;;;1.08;0.50;;;10.20;99.90;;;;;;10061192;28;20162;-67
2023/03/26 21:45:08;;;;;;;1.25;0.65;;;10.20;99.90;;;;;;10061175;28;20551;-67
2023/03/26 21:49:59;;;;;;;0.63;0.40;;;10.30;99.90;;;;;;10064903;28;20032;-67
2023/03/26 21:54:50;;;;;;;3.35;0.98;;;10.30;99.90;;;;;;10054151;28;20029;-67
2023/03/26 21:59:55;;;;;;;0.60;0.30;;;10.30;99.90;;;;;;10052655;28;20037;-67
2023/03/26 22:04:48;;;;;;;2.40;0.27;;;10.30;99.90;;;;;;10058506;28;20062;-68
2023/03/26 22:09:40;;;;;;;0.70;0.52;;;10.10;99.90;;;;;;10059856;28;20404;-68
2023/03/26 22:14:31;;;;;;;0.93;0.50;;;10.00;99.90;;;;;;10058195;28;20049;-68
2023/03/26 22:19:22;;;;;;;1.20;0.90;;;10.00;99.90;;;;;;10056018;28;20041;-67
2023/03/26 22:24:12;;;;;;;0.88;0.60;;;9.90;99.90;;;;;;10045634;28;20029;-64
2023/03/26 22:29:04;;;;;;;0.63;0.50;;;9.80;99.90;;;;;;10040527;28;20503;-64
2023/03/26 22:33:54;;;;;;;0.82;0.60;;;9.60;99.90;;;;;;10038523;28;20041;-64
2023/03/26 22:38:45;;;;;;;1.15;0.70;;;9.50;99.90;;;;;;10045834;28;20064;-65
2023/03/26 22:43:37;;;;;;;0.90;0.65;;;9.50;99.90;;;;;;10047906;28;20369;-64
2023/03/26 22:48:29;;;;;;;0.70;0.70;;;9.50;99.90;;;;;;10059741;28;20029;-65
2023/03/26 22:53:19;;;;;;;1.10;0.95;;;9.40;99.90;;;;;;10070834;28;20418;-66
2023/03/26 22:58:10;;;;;;;1.85;0.60;;;9.40;99.90;;;;;;10057244;28;20033;-65
2023/03/26 23:03:01;;;;;;;1.80;1.40;;;9.30;99.90;;;;;;10059153;28;20052;-63
2023/03/26 23:07:52;;;;;;;1.00;0.65;;;9.40;99.90;;;;;;10058801;28;20108;-67
2023/03/26 23:12:42;;;;;;;1.80;0.65;;;9.50;99.90;;;;;;10058457;28;20187;-67
2023/03/26 23:17:34;;;;;;;1.02;0.73;;;9.50;99.90;;;;;;10058462;28;20053;-69
2023/03/26 23:22:25;;;;;;;1.63;0.85;;;9.40;99.90;;;;;;10059275;28;20021;-66
2023/03/26 23:27:16;;;;;;;1.25;0.90;;;9.30;99.90;;;;;;10058041;28;20115;-66
2023/03/26 23:32:07;;;;;;;1.63;0.95;;;9.30;99.90;;;;;;10055687;28;20021;-66
2023/03/26 23:36:57;;;;;;;1.60;0.90;;;9.30;99.90;;;;;;10057972;28;20038;-66
2023/03/26 23:41:48;;;;;;;1.45;1.00;;;9.20;99.90;;;;;;10057811;28;20034;-65
2023/03/26 23:46:40;;;;;;;1.52;1.15;;;9.30;99.90;;;;;;10057449;28;20044;-65
2023/03/26 23:51:31;;;;;;;1.00;0.90;;;9.30;99.90;;;;;;10070352;28;20018;-65
2023/03/26 23:56:22;;;;;;;2.15;1.48;;;9.10;99.90;;;;;;10057351;28;20025;-67
